createdAt,value
2024-05-09T00:00:38.545Z,1027.327
2024-05-09T00:05:31.370Z,1027.24
2024-05-09T00:10:36.129Z,1027.18
2024-05-09T00:15:31.375Z,1027.218
2024-05-09T00:20:37.729Z,1027.239
2024-05-09T00:25:31.248Z,1027.157
2024-05-09T00:30:35.039Z,1027.116
2024-05-09T00:35:31.401Z,1027.091
2024-05-09T00:40:38.709Z,1027.069
2024-05-09T00:45:31.308Z,1027.095
2024-05-09T00:50:36.402Z,1027.108
2024-05-09T00:55:31.453Z,1027.086
2024-05-09T01:00:38.239Z,1027.037
2024-05-09T01:05:31.957Z,1027.056
2024-05-09T01:10:34.200Z,1027.007
2024-05-09T01:15:31.257Z,1026.95
2024-05-09T01:20:39.891Z,1026.929
2024-05-09T01:25:32.727Z,1026.953
2024-05-09T01:30:35.117Z,1026.965
2024-05-09T01:35:31.445Z,1026.991
2024-05-09T01:40:36.999Z,1026.975
2024-05-09T01:45:31.447Z,1026.97
2024-05-09T01:50:39.322Z,1026.953
2024-05-09T01:55:31.322Z,1026.976
2024-05-09T02:00:38.410Z,1026.965
2024-05-09T02:05:31.375Z,1026.902
2024-05-09T02:10:32.999Z,1026.923
2024-05-09T02:15:31.311Z,1026.884
2024-05-09T02:20:36.014Z,1026.916
2024-05-09T02:25:31.330Z,1026.87
2024-05-09T02:30:39.247Z,1026.883
2024-05-09T02:35:31.462Z,1026.937
2024-05-09T02:40:36.449Z,1026.896
2024-05-09T02:45:31.373Z,1026.919
2024-05-09T02:50:37.703Z,1026.857
2024-05-09T02:55:31.407Z,1026.869
2024-05-09T03:00:38.242Z,1026.804
2024-05-09T03:05:31.495Z,1026.725
2024-05-09T03:10:35.784Z,1026.728
2024-05-09T03:15:32.636Z,1026.733
2024-05-09T03:20:34.817Z,1026.701
2024-05-09T03:25:31.426Z,1026.743
2024-05-09T03:30:39.867Z,1026.774
2024-05-09T03:35:31.420Z,1026.781
2024-05-09T03:40:31.543Z,1026.737
2024-05-09T03:45:31.471Z,1026.711
2024-05-09T03:50:35.501Z,1026.649
2024-05-09T03:55:31.555Z,1026.671
2024-05-09T04:00:37.724Z,1026.681
2024-05-09T04:05:32.526Z,1026.621
2024-05-09T04:10:34.101Z,1026.627
2024-05-09T04:15:31.942Z,1026.67
2024-05-09T04:20:38.099Z,1026.601
2024-05-09T04:25:31.480Z,1026.595
2024-05-09T04:30:37.802Z,1026.635
2024-05-09T04:35:31.629Z,1026.651
2024-05-09T04:40:35.020Z,1026.665
2024-05-09T04:45:31.563Z,1026.704
2024-05-09T04:50:36.910Z,1026.706
2024-05-09T04:55:31.570Z,1026.632
2024-05-09T05:00:36.327Z,1026.697
2024-05-09T05:05:31.557Z,1026.78
2024-05-09T05:10:35.919Z,1026.815
2024-05-09T05:15:31.473Z,1026.849
2024-05-09T05:20:33.780Z,1026.847
2024-05-09T05:25:31.543Z,1026.891
2024-05-09T05:30:34.633Z,1026.932
2024-05-09T05:35:31.670Z,1026.918
2024-05-09T05:40:36.488Z,1026.916
2024-05-09T05:45:31.531Z,1026.927
2024-05-09T05:50:35.587Z,1026.933
2024-05-09T05:55:31.516Z,1026.987
2024-05-09T06:00:37.893Z,1026.989
2024-05-09T06:05:31.638Z,1026.953
2024-05-09T06:10:37.847Z,1027.016
2024-05-09T06:15:31.514Z,1027.088
2024-05-09T06:20:35.961Z,1027.063
2024-05-09T06:25:31.558Z,1026.97
2024-05-09T06:30:38.608Z,1027.017
2024-05-09T06:35:31.908Z,1026.972
2024-05-09T06:40:36.978Z,1026.976
2024-05-09T06:45:31.583Z,1026.96
2024-05-09T06:50:37.289Z,1026.881
2024-05-09T06:55:31.564Z,1026.895
2024-05-09T07:00:38.766Z,1026.971
2024-05-09T07:05:31.737Z,1026.982
2024-05-09T07:10:35.157Z,1026.945
2024-05-09T07:15:31.620Z,1026.925
2024-05-09T07:20:34.724Z,1026.956
2024-05-09T07:25:31.792Z,1026.889
2024-05-09T07:30:34.345Z,1026.819
2024-05-09T07:35:31.861Z,1026.82
2024-05-09T07:40:36.026Z,1026.763
2024-05-09T07:45:47.580Z,1026.728
2024-05-09T07:52:23.725Z,1026.758
2024-05-09T07:55:31.823Z,1026.719
2024-05-09T08:00:32.279Z,1026.777
2024-05-09T08:05:31.894Z,1026.782
2024-05-09T08:10:31.697Z,1026.781
2024-05-09T08:15:31.714Z,1026.744
2024-05-09T08:20:35.165Z,1026.771
2024-05-09T08:25:31.733Z,1026.777
2024-05-09T08:30:36.792Z,1026.739
2024-05-09T08:35:31.719Z,1026.762
2024-05-09T08:40:35.334Z,1026.741
2024-05-09T08:45:31.784Z,1026.729
2024-05-09T08:50:38.037Z,1026.716
2024-05-09T08:55:31.738Z,1026.688
2024-05-09T09:00:36.899Z,1026.615
2024-05-09T09:05:33.298Z,1026.602
2024-05-09T09:10:33.419Z,1026.603
2024-05-09T09:15:31.791Z,1026.614
2024-05-09T09:20:36.427Z,1026.541
2024-05-09T09:25:31.917Z,1026.472
2024-05-09T09:30:36.859Z,1026.451
2024-05-09T09:35:31.833Z,1026.409
2024-05-09T09:40:34.931Z,1026.387
2024-05-09T09:45:33.521Z,1026.483
2024-05-09T09:50:34.892Z,1026.483
2024-05-09T09:55:31.977Z,1026.463
2024-05-09T10:00:33.518Z,1026.352
2024-05-09T10:05:32.320Z,1026.378
2024-05-09T10:10:33.150Z,1026.399
2024-05-09T10:15:31.917Z,1026.289
2024-05-09T10:20:41.769Z,1026.18
2024-05-09T10:25:31.889Z,1026.141
2024-05-09T10:30:36.087Z,1026.094
2024-05-09T10:35:35.002Z,1026.133
2024-05-09T10:40:32.435Z,1026.044
2024-05-09T10:45:31.893Z,1026.033
2024-05-09T10:50:34.349Z,1025.988
2024-05-09T10:55:32.106Z,1025.904
2024-05-09T11:00:37.247Z,1025.938
2024-05-09T11:05:33.739Z,1025.818
2024-05-09T11:10:34.208Z,1025.76
2024-05-09T11:15:40.931Z,1025.778
2024-05-09T11:20:41.530Z,1025.731
2024-05-09T11:25:33.014Z,1025.665
2024-05-09T11:30:35.041Z,1025.537
2024-05-09T11:35:32.944Z,1025.492
2024-05-09T11:40:34.435Z,1025.449
2024-05-09T11:45:31.905Z,1025.402
2024-05-09T11:50:35.567Z,1025.411
2024-05-09T11:55:36.004Z,1025.461
2024-05-09T12:00:36.712Z,1025.347
2024-05-09T12:05:32.212Z,1025.286
2024-05-09T12:10:34.701Z,1025.263
2024-05-09T12:15:31.964Z,1025.199
2024-05-09T12:20:37.173Z,1025.048
2024-05-09T12:25:31.927Z,1025.034
2024-05-09T12:30:37.399Z,1024.994
2024-05-09T12:35:31.987Z,1024.969
2024-05-09T12:40:36.652Z,1024.933
2024-05-09T12:45:32.305Z,1024.843
2024-05-09T12:50:34.061Z,1024.837
2024-05-09T12:55:40.166Z,1024.838
2024-05-09T13:00:34.227Z,1024.728
2024-05-09T13:05:32.273Z,1024.763
2024-05-09T13:10:33.373Z,1024.669
2024-05-09T13:15:32.008Z,1024.593
2024-05-09T13:20:34.533Z,1024.594
2024-05-09T13:25:32.084Z,1024.584
2024-05-09T13:30:39.262Z,1024.576
2024-05-09T13:35:32.053Z,1024.52
2024-05-09T13:40:34.859Z,1024.515
2024-05-09T13:45:32.192Z,1024.402
2024-05-09T13:50:36.241Z,1024.356
2024-05-09T13:55:32.031Z,1024.387
2024-05-09T14:00:42.745Z,1024.284
2024-05-09T14:05:32.191Z,1024.173
2024-05-09T14:10:32.688Z,1024.19
2024-05-09T14:15:32.122Z,1024.204
2024-05-09T14:20:32.687Z,1024.125
2024-05-09T14:25:35.207Z,1024.06
2024-05-09T14:30:37.077Z,1024.013
2024-05-09T14:35:32.081Z,1023.924
2024-05-09T14:40:40.246Z,1023.911
2024-05-09T14:45:32.199Z,1023.915
2024-05-09T14:50:36.745Z,1023.912
2024-05-09T14:55:32.188Z,1023.887
2024-05-09T15:00:35.750Z,1023.847
2024-05-09T15:05:32.170Z,1023.865
2024-05-09T15:10:35.639Z,1023.854
2024-05-09T15:15:32.226Z,1023.824
2024-05-09T15:20:35.915Z,1023.82
2024-05-09T15:25:32.088Z,1023.785
2024-05-09T15:30:33.806Z,1023.814
2024-05-09T15:35:32.211Z,1023.77
2024-05-09T15:40:39.162Z,1023.75
2024-05-09T15:45:32.838Z,1023.853
2024-05-09T15:50:38.185Z,1023.827
2024-05-09T15:55:33.359Z,1023.885
2024-05-09T16:00:38.024Z,1023.847
2024-05-09T16:05:32.226Z,1023.875
2024-05-09T16:10:33.905Z,1023.775
2024-05-09T16:15:32.486Z,1023.749
2024-05-09T16:20:38.934Z,1023.736
2024-05-09T16:25:32.242Z,1023.675
2024-05-09T16:30:35.373Z,1023.623
2024-05-09T16:35:32.242Z,1023.631
2024-05-09T16:40:38.024Z,1023.594
2024-05-09T16:45:32.272Z,1023.535
2024-05-09T16:50:34.390Z,1023.542
2024-05-09T16:55:32.266Z,1023.559
2024-05-09T17:00:40.173Z,1023.555
2024-05-09T17:05:32.338Z,1023.5
2024-05-09T17:10:34.374Z,1023.514
2024-05-09T17:15:32.655Z,1023.527
2024-05-09T17:20:35.657Z,1023.532
2024-05-09T17:25:32.359Z,1023.456
2024-05-09T17:30:36.080Z,1023.428
2024-05-09T17:35:32.270Z,1023.458
2024-05-09T17:40:35.858Z,1023.497
2024-05-09T17:45:32.505Z,1023.461
2024-05-09T17:50:35.836Z,1023.372
2024-05-09T17:55:32.490Z,1023.379
2024-05-09T18:00:38.193Z,1023.381
2024-05-09T18:05:32.969Z,1023.367
2024-05-09T18:10:36.846Z,1023.365
2024-05-09T18:15:32.561Z,1023.37
2024-05-09T18:20:40.855Z,1023.328
2024-05-09T18:25:32.246Z,1023.348
2024-05-09T18:30:35.384Z,1023.376
2024-05-09T18:35:32.303Z,1023.376
2024-05-09T18:40:35.890Z,1023.348
2024-05-09T18:45:32.665Z,1023.419
2024-05-09T18:50:36.744Z,1023.504
2024-05-09T18:55:32.333Z,1023.458
2024-05-09T19:00:36.339Z,1023.507
2024-05-09T19:05:32.656Z,1023.538
2024-05-09T19:10:34.946Z,1023.48
2024-05-09T19:15:32.459Z,1023.47
2024-05-09T19:20:35.119Z,1023.477
2024-05-09T19:25:32.338Z,1023.555
2024-05-09T19:30:38.884Z,1023.55
2024-05-09T19:35:32.441Z,1023.603
2024-05-09T19:40:34.148Z,1023.582
2024-05-09T19:45:32.526Z,1023.606
2024-05-09T19:50:40.351Z,1023.629
2024-05-09T19:55:32.431Z,1023.629
2024-05-09T20:00:35.977Z,1023.541
2024-05-09T20:05:32.824Z,1023.554
2024-05-09T20:10:34.693Z,1023.566
2024-05-09T20:15:32.439Z,1023.637
2024-05-09T20:20:38.069Z,1023.656
2024-05-09T20:25:32.407Z,1023.666
2024-05-09T20:30:34.054Z,1023.607
2024-05-09T20:35:33.777Z,1023.652
2024-05-09T20:40:36.122Z,1023.638
2024-05-09T20:45:32.551Z,1023.6
2024-05-09T20:50:38.109Z,1023.632
2024-05-09T20:55:32.518Z,1023.652
2024-05-09T21:00:39.493Z,1023.66
2024-05-09T21:05:32.553Z,1023.583
2024-05-09T21:10:33.966Z,1023.58
2024-05-09T21:15:32.464Z,1023.531
2024-05-09T21:20:34.085Z,1023.555
2024-05-09T21:25:32.546Z,1023.52
2024-05-09T21:30:40.652Z,1023.529
2024-05-09T21:35:32.419Z,1023.499
2024-05-09T21:40:35.186Z,1023.549
2024-05-09T21:45:32.602Z,1023.584
2024-05-09T21:50:39.256Z,1023.59
2024-05-09T21:55:32.459Z,1023.581
2024-05-09T22:00:37.551Z,1023.542
2024-05-09T22:05:32.724Z,1023.555
2024-05-09T22:10:35.439Z,1023.646
2024-05-09T22:15:33.456Z,1023.617
2024-05-09T22:20:37.322Z,1023.666
2024-05-09T22:25:33.010Z,1023.669
2024-05-09T22:30:37.074Z,1023.732
2024-05-09T22:35:32.473Z,1023.654
2024-05-09T22:40:42.256Z,1023.627
2024-05-09T22:45:32.646Z,1023.609
2024-05-09T22:50:33.573Z,1023.636
2024-05-09T22:55:32.536Z,1023.581
2024-05-09T23:00:33.281Z,1023.59
2024-05-09T23:05:33.039Z,1023.603
2024-05-09T23:10:36.595Z,1023.585
2024-05-09T23:15:32.999Z,1023.583
2024-05-09T23:20:37.523Z,1023.588
2024-05-09T23:25:32.656Z,1023.579
2024-05-09T23:30:38.187Z,1023.505
2024-05-09T23:35:32.672Z,1023.531
2024-05-09T23:45:32.757Z,1023.516
2024-05-09T23:50:36.030Z,1023.567
2024-05-09T23:55:32.820Z,1023.512
